sensor_id;sensor_type;location;lat;lon;timestamp;P1;durP1;ratioP1;P2;durP2;ratioP2
17169;SDS011;8700;48.222;16.342;2023-05-07T00:02:26;8.30;;;7.60;;
17169;SDS011;8700;48.222;16.342;2023-05-07T00:05:47;8.30;;;7.60;;
17169;SDS011;8700;48.222;16.342;2023-05-07T00:09:09;8.85;;;7.90;;
17169;SDS011;8700;48.222;16.342;2023-05-07T00:12:31;8.95;;;8.25;;
17169;SDS011;8700;48.222;16.342;2023-05-07T00:15:53;9.63;;;8.73;;
17169;SDS011;8700;48.222;16.342;2023-05-07T00:19:14;8.30;;;7.63;;
17169;SDS011;8700;48.222;16.342;2023-05-07T00:22:36;8.02;;;7.43;;
17169;SDS011;8700;48.222;16.342;2023-05-07T00:25:57;7.63;;;7.03;;
17169;SDS011;8700;48.222;16.342;2023-05-07T00:29:19;7.63;;;6.93;;
17169;SDS011;8700;48.222;16.342;2023-05-07T00:32:41;8.23;;;7.63;;
17169;SDS011;8700;48.222;16.342;2023-05-07T00:36:04;7.80;;;7.20;;
17169;SDS011;8700;48.222;16.342;2023-05-07T00:39:26;8.23;;;7.53;;
17169;SDS011;8700;48.222;16.342;2023-05-07T00:42:47;6.68;;;6.20;;
17169;SDS011;8700;48.222;16.342;2023-05-07T00:46:10;6.03;;;5.45;;
17169;SDS011;8700;48.222;16.342;2023-05-07T00:49:35;5.43;;;5.03;;
17169;SDS011;8700;48.222;16.342;2023-05-07T00:52:59;6.30;;;5.80;;
17169;SDS011;8700;48.222;16.342;2023-05-07T00:56:21;6.03;;;5.43;;
17169;SDS011;8700;48.222;16.342;2023-05-07T00:59:43;5.55;;;5.05;;
17169;SDS011;8700;48.222;16.342;2023-05-07T01:03:06;4.82;;;4.45;;
17169;SDS011;8700;48.222;16.342;2023-05-07T01:06:27;5.05;;;4.68;;
17169;SDS011;8700;48.222;16.342;2023-05-07T01:09:50;4.88;;;4.57;;
17169;SDS011;8700;48.222;16.342;2023-05-07T01:13:12;4.97;;;4.68;;
17169;SDS011;8700;48.222;16.342;2023-05-07T01:16:34;9.57;;;4.97;;
17169;SDS011;8700;48.222;16.342;2023-05-07T01:19:58;4.93;;;4.53;;
17169;SDS011;8700;48.222;16.342;2023-05-07T01:23:20;4.90;;;4.60;;
17169;SDS011;8700;48.222;16.342;2023-05-07T01:26:43;6.32;;;5.93;;
17169;SDS011;8700;48.222;16.342;2023-05-07T01:30:05;5.60;;;5.05;;
17169;SDS011;8700;48.222;16.342;2023-05-07T01:33:27;5.53;;;5.13;;
17169;SDS011;8700;48.222;16.342;2023-05-07T01:36:52;4.70;;;4.40;;
17169;SDS011;8700;48.222;16.342;2023-05-07T01:40:16;5.45;;;5.05;;
17169;SDS011;8700;48.222;16.342;2023-05-07T01:43:37;4.43;;;4.22;;
17169;SDS011;8700;48.222;16.342;2023-05-07T01:47:00;5.32;;;4.93;;
17169;SDS011;8700;48.222;16.342;2023-05-07T01:50:25;6.20;;;5.70;;
17169;SDS011;8700;48.222;16.342;2023-05-07T01:53:47;14.27;;;13.05;;
17169;SDS011;8700;48.222;16.342;2023-05-07T01:57:11;7.15;;;5.30;;
17169;SDS011;8700;48.222;16.342;2023-05-07T02:00:33;5.43;;;5.05;;
17169;SDS011;8700;48.222;16.342;2023-05-07T02:03:54;5.43;;;5.03;;
17169;SDS011;8700;48.222;16.342;2023-05-07T02:07:15;5.47;;;5.13;;
17169;SDS011;8700;48.222;16.342;2023-05-07T02:10:37;5.53;;;4.95;;
17169;SDS011;8700;48.222;16.342;2023-05-07T02:13:59;5.65;;;5.05;;
17169;SDS011;8700;48.222;16.342;2023-05-07T02:17:20;5.80;;;5.40;;
17169;SDS011;8700;48.222;16.342;2023-05-07T02:20:42;5.65;;;5.30;;
17169;SDS011;8700;48.222;16.342;2023-05-07T02:24:03;6.07;;;5.63;;
17169;SDS011;8700;48.222;16.342;2023-05-07T02:27:25;5.93;;;5.53;;
17169;SDS011;8700;48.222;16.342;2023-05-07T02:30:48;6.35;;;5.90;;
17169;SDS011;8700;48.222;16.342;2023-05-07T02:34:10;7.03;;;6.57;;
17169;SDS011;8700;48.222;16.342;2023-05-07T02:37:31;7.30;;;6.80;;
17169;SDS011;8700;48.222;16.342;2023-05-07T02:40:52;6.78;;;6.38;;
17169;SDS011;8700;48.222;16.342;2023-05-07T02:44:13;7.38;;;6.85;;
17169;SDS011;8700;48.222;16.342;2023-05-07T02:47:36;7.90;;;7.40;;
17169;SDS011;8700;48.222;16.342;2023-05-07T02:50:57;7.47;;;6.97;;
17169;SDS011;8700;48.222;16.342;2023-05-07T02:54:20;7.82;;;7.13;;
17169;SDS011;8700;48.222;16.342;2023-05-07T02:57:41;8.10;;;7.50;;
17169;SDS011;8700;48.222;16.342;2023-05-07T03:01:02;8.65;;;8.05;;
17169;SDS011;8700;48.222;16.342;2023-05-07T03:04:25;8.68;;;7.95;;
17169;SDS011;8700;48.222;16.342;2023-05-07T03:07:46;8.95;;;8.25;;
17169;SDS011;8700;48.222;16.342;2023-05-07T03:11:07;10.10;;;9.40;;
17169;SDS011;8700;48.222;16.342;2023-05-07T03:14:29;10.35;;;9.38;;
17169;SDS011;8700;48.222;16.342;2023-05-07T03:17:50;10.85;;;10.05;;
17169;SDS011;8700;48.222;16.342;2023-05-07T03:21:12;11.13;;;10.18;;
17169;SDS011;8700;48.222;16.342;2023-05-07T03:24:34;11.50;;;10.40;;
17169;SDS011;8700;48.222;16.342;2023-05-07T03:27:55;11.50;;;10.65;;
17169;SDS011;8700;48.222;16.342;2023-05-07T03:31:16;11.75;;;10.65;;
17169;SDS011;8700;48.222;16.342;2023-05-07T03:34:38;13.65;;;12.45;;
17169;SDS011;8700;48.222;16.342;2023-05-07T03:38:01;12.65;;;11.65;;
17169;SDS011;8700;48.222;16.342;2023-05-07T03:41:22;14.13;;;12.43;;
17169;SDS011;8700;48.222;16.342;2023-05-07T03:44:44;12.45;;;11.45;;
17169;SDS011;8700;48.222;16.342;2023-05-07T03:48:06;12.63;;;11.55;;
17169;SDS011;8700;48.222;16.342;2023-05-07T03:51:27;13.15;;;12.18;;
17169;SDS011;8700;48.222;16.342;2023-05-07T03:54:50;14.90;;;13.60;;
17169;SDS011;8700;48.222;16.342;2023-05-07T03:58:11;16.15;;;14.70;;
17169;SDS011;8700;48.222;16.342;2023-05-07T04:01:33;16.95;;;15.35;;
17169;SDS011;8700;48.222;16.342;2023-05-07T04:04:53;19.88;;;17.88;;
17169;SDS011;8700;48.222;16.342;2023-05-07T04:08:15;20.50;;;18.80;;
17169;SDS011;8700;48.222;16.342;2023-05-07T04:11:38;20.27;;;18.52;;
17169;SDS011;8700;48.222;16.342;2023-05-07T04:14:59;22.48;;;20.48;;
17169;SDS011;8700;48.222;16.342;2023-05-07T04:18:20;21.80;;;20.00;;
17169;SDS011;8700;48.222;16.342;2023-05-07T04:21:42;23.35;;;21.35;;
17169;SDS011;8700;48.222;16.342;2023-05-07T04:25:04;21.17;;;19.38;;
17169;SDS011;8700;48.222;16.342;2023-05-07T04:28:27;23.70;;;21.65;;
17169;SDS011;8700;48.222;16.342;2023-05-07T04:31:48;21.55;;;19.45;;
17169;SDS011;8700;48.222;16.342;2023-05-07T04:35:10;23.85;;;21.88;;
17169;SDS011;8700;48.222;16.342;2023-05-07T04:38:31;23.02;;;21.10;;
17169;SDS011;8700;48.222;16.342;2023-05-07T04:41:52;25.15;;;22.77;;
17169;SDS011;8700;48.222;16.342;2023-05-07T04:45:15;24.40;;;22.20;;
17169;SDS011;8700;48.222;16.342;2023-05-07T04:48:36;23.88;;;21.88;;
17169;SDS011;8700;48.222;16.342;2023-05-07T04:51:57;28.40;;;25.70;;
17169;SDS011;8700;48.222;16.342;2023-05-07T04:55:19;25.92;;;23.52;;
17169;SDS011;8700;48.222;16.342;2023-05-07T04:58:40;28.27;;;25.50;;
17169;SDS011;8700;48.222;16.342;2023-05-07T05:02:05;28.98;;;26.58;;
17169;SDS011;8700;48.222;16.342;2023-05-07T05:05:26;26.42;;;23.98;;
17169;SDS011;8700;48.222;16.342;2023-05-07T05:08:47;27.92;;;25.35;;
17169;SDS011;8700;48.222;16.342;2023-05-07T05:12:08;27.83;;;25.30;;
17169;SDS011;8700;48.222;16.342;2023-05-07T05:15:29;26.95;;;24.55;;
17169;SDS011;8700;48.222;16.342;2023-05-07T05:18:52;30.13;;;27.52;;
17169;SDS011;8700;48.222;16.342;2023-05-07T05:22:14;30.65;;;27.88;;
17169;SDS011;8700;48.222;16.342;2023-05-07T05:25:35;31.00;;;28.10;;
17169;SDS011;8700;48.222;16.342;2023-05-07T05:28:56;32.63;;;29.73;;
17169;SDS011;8700;48.222;16.342;2023-05-07T05:32:17;33.92;;;30.88;;
17169;SDS011;8700;48.222;16.342;2023-05-07T05:35:40;32.25;;;29.17;;
17169;SDS011;8700;48.222;16.342;2023-05-07T05:39:02;34.15;;;30.90;;
17169;SDS011;8700;48.222;16.342;2023-05-07T05:42:23;33.38;;;30.05;;
17169;SDS011;8700;48.222;16.342;2023-05-07T05:45:44;33.35;;;30.20;;
17169;SDS011;8700;48.222;16.342;2023-05-07T05:49:06;30.42;;;27.67;;
17169;SDS011;8700;48.222;16.342;2023-05-07T05:52:29;31.80;;;28.95;;
17169;SDS011;8700;48.222;16.342;2023-05-07T05:55:50;32.20;;;29.35;;
17169;SDS011;8700;48.222;16.342;2023-05-07T05:59:12;33.75;;;30.70;;
17169;SDS011;8700;48.222;16.342;2023-05-07T06:02:33;31.23;;;28.30;;
17169;SDS011;8700;48.222;16.342;2023-05-07T06:05:54;31.77;;;29.08;;
17169;SDS011;8700;48.222;16.342;2023-05-07T06:09:17;30.95;;;28.17;;
17169;SDS011;8700;48.222;16.342;2023-05-07T06:12:39;31.58;;;28.67;;
17169;SDS011;8700;48.222;16.342;2023-05-07T06:16:00;30.45;;;27.52;;
17169;SDS011;8700;48.222;16.342;2023-05-07T06:19:21;31.58;;;28.55;;
17169;SDS011;8700;48.222;16.342;2023-05-07T06:22:43;31.88;;;29.08;;
17169;SDS011;8700;48.222;16.342;2023-05-07T06:26:06;29.45;;;26.65;;
17169;SDS011;8700;48.222;16.342;2023-05-07T06:29:27;30.35;;;27.58;;
17169;SDS011;8700;48.222;16.342;2023-05-07T06:32:50;30.58;;;27.67;;
17169;SDS011;8700;48.222;16.342;2023-05-07T06:36:12;29.35;;;26.63;;
17169;SDS011;8700;48.222;16.342;2023-05-07T06:39:33;27.08;;;24.52;;
17169;SDS011;8700;48.222;16.342;2023-05-07T06:42:57;28.98;;;26.42;;
17169;SDS011;8700;48.222;16.342;2023-05-07T06:46:18;32.45;;;29.40;;
17169;SDS011;8700;48.222;16.342;2023-05-07T06:49:39;29.30;;;26.70;;
17169;SDS011;8700;48.222;16.342;2023-05-07T06:53:00;28.17;;;25.67;;
17169;SDS011;8700;48.222;16.342;2023-05-07T06:56:22;30.35;;;27.55;;
17169;SDS011;8700;48.222;16.342;2023-05-07T06:59:45;30.52;;;27.73;;
17169;SDS011;8700;48.222;16.342;2023-05-07T07:03:07;30.45;;;27.60;;
17169;SDS011;8700;48.222;16.342;2023-05-07T07:06:28;30.98;;;28.00;;
17169;SDS011;8700;48.222;16.342;2023-05-07T07:09:51;30.73;;;27.92;;
17169;SDS011;8700;48.222;16.342;2023-05-07T07:13:12;28.35;;;25.75;;
17169;SDS011;8700;48.222;16.342;2023-05-07T07:16:34;30.52;;;27.58;;
17169;SDS011;8700;48.222;16.342;2023-05-07T07:19:56;31.00;;;27.83;;
17169;SDS011;8700;48.222;16.342;2023-05-07T07:23:17;29.60;;;27.05;;
17169;SDS011;8700;48.222;16.342;2023-05-07T07:26:41;29.13;;;26.38;;
17169;SDS011;8700;48.222;16.342;2023-05-07T07:30:02;25.83;;;23.48;;
17169;SDS011;8700;48.222;16.342;2023-05-07T07:33:26;26.45;;;24.23;;
17169;SDS011;8700;48.222;16.342;2023-05-07T07:36:47;27.88;;;25.48;;
17169;SDS011;8700;48.222;16.342;2023-05-07T07:40:09;27.08;;;24.45;;
17169;SDS011;8700;48.222;16.342;2023-05-07T07:43:32;27.33;;;25.08;;
17169;SDS011;8700;48.222;16.342;2023-05-07T07:46:53;28.75;;;26.08;;
17169;SDS011;8700;48.222;16.342;2023-05-07T07:50:16;28.77;;;26.23;;
17169;SDS011;8700;48.222;16.342;2023-05-07T07:53:37;25.17;;;22.98;;
17169;SDS011;8700;48.222;16.342;2023-05-07T07:57:00;25.10;;;22.90;;
17169;SDS011;8700;48.222;16.342;2023-05-07T08:00:22;25.98;;;23.70;;
17169;SDS011;8700;48.222;16.342;2023-05-07T08:03:43;25.77;;;23.58;;
17169;SDS011;8700;48.222;16.342;2023-05-07T08:07:06;27.08;;;24.75;;
17169;SDS011;8700;48.222;16.342;2023-05-07T08:10:27;27.13;;;24.60;;
17169;SDS011;8700;48.222;16.342;2023-05-07T08:13:49;23.83;;;21.80;;
17169;SDS011;8700;48.222;16.342;2023-05-07T08:17:10;23.45;;;21.55;;
17169;SDS011;8700;48.222;16.342;2023-05-07T08:20:35;24.50;;;22.45;;
17169;SDS011;8700;48.222;16.342;2023-05-07T08:24:00;23.08;;;21.13;;
17169;SDS011;8700;48.222;16.342;2023-05-07T08:27:21;21.20;;;19.42;;
17169;SDS011;8700;48.222;16.342;2023-05-07T08:30:43;20.92;;;19.30;;
17169;SDS011;8700;48.222;16.342;2023-05-07T08:34:04;22.13;;;20.08;;
17169;SDS011;8700;48.222;16.342;2023-05-07T08:37:26;21.75;;;19.77;;
17169;SDS011;8700;48.222;16.342;2023-05-07T08:40:48;20.73;;;18.92;;
17169;SDS011;8700;48.222;16.342;2023-05-07T08:44:11;21.52;;;19.40;;
17169;SDS011;8700;48.222;16.342;2023-05-07T08:47:34;21.13;;;19.33;;
17169;SDS011;8700;48.222;16.342;2023-05-07T08:51:03;22.98;;;21.02;;
17169;SDS011;8700;48.222;16.342;2023-05-07T08:54:24;20.92;;;19.23;;
17169;SDS011;8700;48.222;16.342;2023-05-07T08:57:47;17.88;;;16.35;;
17169;SDS011;8700;48.222;16.342;2023-05-07T09:01:10;19.75;;;18.15;;
17169;SDS011;8700;48.222;16.342;2023-05-07T09:04:34;18.00;;;16.58;;
17169;SDS011;8700;48.222;16.342;2023-05-07T09:07:55;18.50;;;17.00;;
17169;SDS011;8700;48.222;16.342;2023-05-07T09:11:20;19.27;;;17.77;;
17169;SDS011;8700;48.222;16.342;2023-05-07T09:14:44;20.83;;;19.00;;
17169;SDS011;8700;48.222;16.342;2023-05-07T09:18:06;19.25;;;17.65;;
17169;SDS011;8700;48.222;16.342;2023-05-07T09:21:29;20.25;;;18.60;;
17169;SDS011;8700;48.222;16.342;2023-05-07T09:24:51;19.73;;;17.98;;
17169;SDS011;8700;48.222;16.342;2023-05-07T09:28:12;17.23;;;15.75;;
17169;SDS011;8700;48.222;16.342;2023-05-07T09:31:37;18.50;;;16.88;;
17169;SDS011;8700;48.222;16.342;2023-05-07T09:34:58;19.15;;;17.60;;
17169;SDS011;8700;48.222;16.342;2023-05-07T09:38:19;19.63;;;18.05;;
17169;SDS011;8700;48.222;16.342;2023-05-07T09:41:45;18.88;;;17.30;;
17169;SDS011;8700;48.222;16.342;2023-05-07T09:45:09;19.88;;;18.27;;
17169;SDS011;8700;48.222;16.342;2023-05-07T09:48:31;18.27;;;16.85;;
17169;SDS011;8700;48.222;16.342;2023-05-07T09:51:56;18.02;;;16.52;;
17169;SDS011;8700;48.222;16.342;2023-05-07T09:55:20;19.83;;;18.13;;
17169;SDS011;8700;48.222;16.342;2023-05-07T09:58:42;18.00;;;16.50;;
17169;SDS011;8700;48.222;16.342;2023-05-07T10:02:05;18.95;;;17.35;;
17169;SDS011;8700;48.222;16.342;2023-05-07T10:05:28;18.23;;;16.67;;
17169;SDS011;8700;48.222;16.342;2023-05-07T10:08:50;19.02;;;17.55;;
17169;SDS011;8700;48.222;16.342;2023-05-07T10:12:12;17.45;;;16.05;;
17169;SDS011;8700;48.222;16.342;2023-05-07T10:15:34;18.20;;;16.83;;
17169;SDS011;8700;48.222;16.342;2023-05-07T10:18:56;19.58;;;17.70;;
17169;SDS011;8700;48.222;16.342;2023-05-07T10:22:20;17.83;;;16.23;;
17169;SDS011;8700;48.222;16.342;2023-05-07T10:25:43;17.08;;;15.77;;
17169;SDS011;8700;48.222;16.342;2023-05-07T10:29:05;15.80;;;14.70;;
17169;SDS011;8700;48.222;16.342;2023-05-07T10:32:35;17.05;;;15.75;;
17169;SDS011;8700;48.222;16.342;2023-05-07T10:36:00;16.13;;;14.82;;
17169;SDS011;8700;48.222;16.342;2023-05-07T10:39:25;17.30;;;16.08;;
17169;SDS011;8700;48.222;16.342;2023-05-07T10:42:55;16.30;;;15.02;;
17169;SDS011;8700;48.222;16.342;2023-05-07T10:46:19;17.60;;;16.20;;
17169;SDS011;8700;48.222;16.342;2023-05-07T10:53:40;17.50;;;16.08;;
17169;SDS011;8700;48.222;16.342;2023-05-07T11:00:57;16.08;;;14.88;;
17169;SDS011;8700;48.222;16.342;2023-05-07T11:04:19;17.02;;;15.63;;
17169;SDS011;8700;48.222;16.342;2023-05-07T11:07:44;18.20;;;16.80;;
17169;SDS011;8700;48.222;16.342;2023-05-07T11:11:14;16.50;;;15.20;;
17169;SDS011;8700;48.222;16.342;2023-05-07T11:14:46;14.88;;;13.70;;
17169;SDS011;8700;48.222;16.342;2023-05-07T11:18:07;15.25;;;14.05;;
17169;SDS011;8700;48.222;16.342;2023-05-07T11:21:33;16.20;;;15.00;;
17169;SDS011;8700;48.222;16.342;2023-05-07T11:24:55;15.75;;;14.45;;
17169;SDS011;8700;48.222;16.342;2023-05-07T11:28:17;13.65;;;12.60;;
17169;SDS011;8700;48.222;16.342;2023-05-07T11:31:41;12.40;;;11.50;;
17169;SDS011;8700;48.222;16.342;2023-05-07T11:35:02;13.88;;;12.77;;
17169;SDS011;8700;48.222;16.342;2023-05-07T11:38:25;14.68;;;13.57;;
17169;SDS011;8700;48.222;16.342;2023-05-07T11:41:46;14.93;;;13.55;;
17169;SDS011;8700;48.222;16.342;2023-05-07T11:45:08;15.52;;;14.25;;
17169;SDS011;8700;48.222;16.342;2023-05-07T11:48:31;16.33;;;14.88;;
17169;SDS011;8700;48.222;16.342;2023-05-07T11:51:53;14.50;;;13.40;;
17169;SDS011;8700;48.222;16.342;2023-05-07T11:55:14;16.60;;;15.20;;
17169;SDS011;8700;48.222;16.342;2023-05-07T11:58:39;15.63;;;14.32;;
17169;SDS011;8700;48.222;16.342;2023-05-07T12:02:01;14.07;;;12.50;;
17169;SDS011;8700;48.222;16.342;2023-05-07T12:05:23;14.98;;;13.68;;
17169;SDS011;8700;48.222;16.342;2023-05-07T12:08:46;14.23;;;13.02;;
17169;SDS011;8700;48.222;16.342;2023-05-07T12:12:07;13.55;;;12.35;;
17169;SDS011;8700;48.222;16.342;2023-05-07T12:15:28;13.45;;;12.55;;
17169;SDS011;8700;48.222;16.342;2023-05-07T12:18:49;15.23;;;14.13;;
17169;SDS011;8700;48.222;16.342;2023-05-07T12:22:13;14.50;;;13.30;;
17169;SDS011;8700;48.222;16.342;2023-05-07T12:25:34;12.98;;;11.77;;
17169;SDS011;8700;48.222;16.342;2023-05-07T12:28:56;12.82;;;11.82;;
17169;SDS011;8700;48.222;16.342;2023-05-07T12:32:20;14.60;;;13.38;;
17169;SDS011;8700;48.222;16.342;2023-05-07T12:35:53;13.20;;;12.02;;
17169;SDS011;8700;48.222;16.342;2023-05-07T12:39:17;14.32;;;13.10;;
17169;SDS011;8700;48.222;16.342;2023-05-07T12:42:39;13.75;;;12.57;;
17169;SDS011;8700;48.222;16.342;2023-05-07T12:46:01;13.77;;;12.55;;
17169;SDS011;8700;48.222;16.342;2023-05-07T12:49:25;15.38;;;14.13;;
17169;SDS011;8700;48.222;16.342;2023-05-07T12:52:47;14.13;;;12.93;;
17169;SDS011;8700;48.222;16.342;2023-05-07T12:56:10;12.23;;;11.23;;
17169;SDS011;8700;48.222;16.342;2023-05-07T12:59:36;10.68;;;9.88;;
17169;SDS011;8700;48.222;16.342;2023-05-07T13:02:59;13.20;;;12.30;;
17169;SDS011;8700;48.222;16.342;2023-05-07T13:06:20;14.05;;;12.95;;
17169;SDS011;8700;48.222;16.342;2023-05-07T13:09:41;12.63;;;11.63;;
17169;SDS011;8700;48.222;16.342;2023-05-07T13:13:04;11.80;;;10.90;;
17169;SDS011;8700;48.222;16.342;2023-05-07T13:16:25;13.13;;;12.13;;
17169;SDS011;8700;48.222;16.342;2023-05-07T13:19:46;11.80;;;10.90;;
17169;SDS011;8700;48.222;16.342;2023-05-07T13:23:07;11.60;;;10.68;;
17169;SDS011;8700;48.222;16.342;2023-05-07T13:26:29;11.30;;;10.32;;
17169;SDS011;8700;48.222;16.342;2023-05-07T13:29:53;14.77;;;13.63;;
17169;SDS011;8700;48.222;16.342;2023-05-07T13:33:14;13.30;;;11.05;;
17169;SDS011;8700;48.222;16.342;2023-05-07T13:36:36;12.70;;;11.70;;
17169;SDS011;8700;48.222;16.342;2023-05-07T13:39:59;10.70;;;9.82;;
17169;SDS011;8700;48.222;16.342;2023-05-07T13:43:20;11.68;;;10.77;;
17169;SDS011;8700;48.222;16.342;2023-05-07T13:46:42;10.98;;;10.18;;
17169;SDS011;8700;48.222;16.342;2023-05-07T13:50:05;11.70;;;10.80;;
17169;SDS011;8700;48.222;16.342;2023-05-07T13:53:27;12.48;;;11.35;;
17169;SDS011;8700;48.222;16.342;2023-05-07T13:56:49;8.93;;;8.32;;
17169;SDS011;8700;48.222;16.342;2023-05-07T14:00:12;10.73;;;9.82;;
17169;SDS011;8700;48.222;16.342;2023-05-07T14:03:37;11.70;;;10.80;;
17169;SDS011;8700;48.222;16.342;2023-05-07T14:06:59;9.60;;;8.80;;
17169;SDS011;8700;48.222;16.342;2023-05-07T14:10:20;10.13;;;9.43;;
17169;SDS011;8700;48.222;16.342;2023-05-07T14:13:41;10.05;;;9.18;;
17169;SDS011;8700;48.222;16.342;2023-05-07T14:17:03;11.30;;;10.20;;
17169;SDS011;8700;48.222;16.342;2023-05-07T14:20:25;10.55;;;9.75;;
17169;SDS011;8700;48.222;16.342;2023-05-07T14:23:47;10.45;;;9.55;;
17169;SDS011;8700;48.222;16.342;2023-05-07T14:27:08;8.68;;;7.93;;
17169;SDS011;8700;48.222;16.342;2023-05-07T14:30:29;10.23;;;9.43;;
17169;SDS011;8700;48.222;16.342;2023-05-07T14:33:50;11.55;;;10.65;;
17169;SDS011;8700;48.222;16.342;2023-05-07T14:37:13;8.82;;;8.13;;
17169;SDS011;8700;48.222;16.342;2023-05-07T14:40:35;11.70;;;10.80;;
17169;SDS011;8700;48.222;16.342;2023-05-07T14:43:56;8.98;;;8.30;;
17169;SDS011;8700;48.222;16.342;2023-05-07T14:47:18;9.25;;;8.48;;
17169;SDS011;8700;48.222;16.342;2023-05-07T14:50:39;8.80;;;8.13;;
17169;SDS011;8700;48.222;16.342;2023-05-07T14:54:01;10.25;;;9.45;;
17169;SDS011;8700;48.222;16.342;2023-05-07T14:57:23;10.25;;;9.45;;
17169;SDS011;8700;48.222;16.342;2023-05-07T15:00:44;9.80;;;9.05;;
17169;SDS011;8700;48.222;16.342;2023-05-07T15:04:08;10.55;;;9.85;;
17169;SDS011;8700;48.222;16.342;2023-05-07T15:07:30;9.02;;;8.23;;
17169;SDS011;8700;48.222;16.342;2023-05-07T15:10:53;7.60;;;7.00;;
17169;SDS011;8700;48.222;16.342;2023-05-07T15:14:15;9.57;;;8.90;;
17169;SDS011;8700;48.222;16.342;2023-05-07T15:17:36;7.75;;;7.15;;
17169;SDS011;8700;48.222;16.342;2023-05-07T15:20:58;8.13;;;7.63;;
17169;SDS011;8700;48.222;16.342;2023-05-07T15:24:19;7.70;;;7.18;;
17169;SDS011;8700;48.222;16.342;2023-05-07T15:27:42;8.65;;;8.10;;
17169;SDS011;8700;48.222;16.342;2023-05-07T15:31:04;9.73;;;8.90;;
17169;SDS011;8700;48.222;16.342;2023-05-07T15:34:26;7.95;;;7.25;;
17169;SDS011;8700;48.222;16.342;2023-05-07T15:37:47;8.20;;;7.47;;
17169;SDS011;8700;48.222;16.342;2023-05-07T15:41:10;6.85;;;6.45;;
17169;SDS011;8700;48.222;16.342;2023-05-07T15:44:32;8.25;;;7.63;;
17169;SDS011;8700;48.222;16.342;2023-05-07T15:47:54;6.88;;;6.47;;
17169;SDS011;8700;48.222;16.342;2023-05-07T15:51:15;8.43;;;7.82;;
17169;SDS011;8700;48.222;16.342;2023-05-07T15:54:39;8.68;;;8.18;;
17169;SDS011;8700;48.222;16.342;2023-05-07T15:58:00;8.50;;;7.90;;
17169;SDS011;8700;48.222;16.342;2023-05-07T16:01:28;8.32;;;7.72;;
17169;SDS011;8700;48.222;16.342;2023-05-07T16:04:49;9.75;;;9.15;;
17169;SDS011;8700;48.222;16.342;2023-05-07T16:08:11;7.95;;;7.45;;
17169;SDS011;8700;48.222;16.342;2023-05-07T16:11:32;8.13;;;7.53;;
17169;SDS011;8700;48.222;16.342;2023-05-07T16:14:54;9.10;;;8.43;;
17169;SDS011;8700;48.222;16.342;2023-05-07T16:18:18;8.02;;;7.38;;
17169;SDS011;8700;48.222;16.342;2023-05-07T16:21:40;8.40;;;7.80;;
17169;SDS011;8700;48.222;16.342;2023-05-07T16:25:01;8.55;;;7.95;;
17169;SDS011;8700;48.222;16.342;2023-05-07T16:28:23;8.80;;;8.10;;
17169;SDS011;8700;48.222;16.342;2023-05-07T16:31:45;9.15;;;8.45;;
17169;SDS011;8700;48.222;16.342;2023-05-07T16:35:08;10.18;;;9.27;;
17169;SDS011;8700;48.222;16.342;2023-05-07T16:38:29;10.52;;;9.82;;
17169;SDS011;8700;48.222;16.342;2023-05-07T16:41:52;11.03;;;10.13;;
17169;SDS011;8700;48.222;16.342;2023-05-07T16:45:13;11.25;;;10.35;;
17169;SDS011;8700;48.222;16.342;2023-05-07T16:48:37;12.95;;;11.95;;
17169;SDS011;8700;48.222;16.342;2023-05-07T16:51:59;12.35;;;11.45;;
17169;SDS011;8700;48.222;16.342;2023-05-07T16:55:20;10.75;;;9.95;;
17169;SDS011;8700;48.222;16.342;2023-05-07T16:58:42;11.38;;;10.48;;
17169;SDS011;8700;48.222;16.342;2023-05-07T17:02:03;12.48;;;11.48;;
17169;SDS011;8700;48.222;16.342;2023-05-07T17:05:27;12.93;;;11.93;;
17169;SDS011;8700;48.222;16.342;2023-05-07T17:08:50;12.88;;;11.88;;
17169;SDS011;8700;48.222;16.342;2023-05-07T17:12:12;12.35;;;11.35;;
17169;SDS011;8700;48.222;16.342;2023-05-07T17:15:33;13.98;;;12.93;;
17169;SDS011;8700;48.222;16.342;2023-05-07T17:18:54;11.82;;;10.93;;
17169;SDS011;8700;48.222;16.342;2023-05-07T17:22:16;11.00;;;10.20;;
17169;SDS011;8700;48.222;16.342;2023-05-07T17:25:39;12.50;;;11.50;;
17169;SDS011;8700;48.222;16.342;2023-05-07T17:29:04;12.70;;;11.70;;
17169;SDS011;8700;48.222;16.342;2023-05-07T17:32:25;11.82;;;11.02;;
17169;SDS011;8700;48.222;16.342;2023-05-07T17:35:47;11.45;;;10.52;;
17169;SDS011;8700;48.222;16.342;2023-05-07T17:39:09;11.68;;;10.77;;
17169;SDS011;8700;48.222;16.342;2023-05-07T17:42:32;11.32;;;10.43;;
17169;SDS011;8700;48.222;16.342;2023-05-07T17:45:53;11.50;;;10.70;;
17169;SDS011;8700;48.222;16.342;2023-05-07T17:49:15;11.10;;;10.32;;
17169;SDS011;8700;48.222;16.342;2023-05-07T17:52:36;11.65;;;10.75;;
17169;SDS011;8700;48.222;16.342;2023-05-07T17:55:58;10.40;;;9.60;;
17169;SDS011;8700;48.222;16.342;2023-05-07T17:59:21;11.30;;;10.38;;
17169;SDS011;8700;48.222;16.342;2023-05-07T18:02:45;11.00;;;10.10;;
17169;SDS011;8700;48.222;16.342;2023-05-07T18:06:07;11.80;;;10.77;;
17169;SDS011;8700;48.222;16.342;2023-05-07T18:09:28;10.98;;;10.18;;
17169;SDS011;8700;48.222;16.342;2023-05-07T18:13:21;9.88;;;9.07;;
17169;SDS011;8700;48.222;16.342;2023-05-07T18:16:42;12.00;;;10.95;;
17169;SDS011;8700;48.222;16.342;2023-05-07T18:20:04;10.35;;;9.35;;
17169;SDS011;8700;48.222;16.342;2023-05-07T18:23:29;11.52;;;10.60;;
17169;SDS011;8700;48.222;16.342;2023-05-07T18:26:53;12.02;;;11.07;;
17169;SDS011;8700;48.222;16.342;2023-05-07T18:30:16;11.20;;;10.40;;
17169;SDS011;8700;48.222;16.342;2023-05-07T18:33:38;12.02;;;11.15;;
17169;SDS011;8700;48.222;16.342;2023-05-07T18:36:59;11.45;;;10.60;;
17169;SDS011;8700;48.222;16.342;2023-05-07T18:40:21;12.70;;;11.65;;
17169;SDS011;8700;48.222;16.342;2023-05-07T18:43:42;12.93;;;12.02;;
17169;SDS011;8700;48.222;16.342;2023-05-07T18:47:05;11.80;;;11.00;;
17169;SDS011;8700;48.222;16.342;2023-05-07T18:50:26;10.85;;;10.05;;
17169;SDS011;8700;48.222;16.342;2023-05-07T18:53:47;11.32;;;10.45;;
17169;SDS011;8700;48.222;16.342;2023-05-07T18:57:09;11.88;;;10.93;;
17169;SDS011;8700;48.222;16.342;2023-05-07T19:00:30;11.05;;;10.25;;
17169;SDS011;8700;48.222;16.342;2023-05-07T19:03:53;11.95;;;11.05;;
17169;SDS011;8700;48.222;16.342;2023-05-07T19:07:15;12.43;;;11.32;;
17169;SDS011;8700;48.222;16.342;2023-05-07T19:10:37;12.32;;;11.25;;
17169;SDS011;8700;48.222;16.342;2023-05-07T19:13:58;9.93;;;8.95;;
17169;SDS011;8700;48.222;16.342;2023-05-07T19:17:20;11.15;;;10.35;;
17169;SDS011;8700;48.222;16.342;2023-05-07T19:20:42;13.17;;;12.13;;
17169;SDS011;8700;48.222;16.342;2023-05-07T19:24:07;13.87;;;12.77;;
17169;SDS011;8700;48.222;16.342;2023-05-07T19:27:28;13.70;;;12.43;;
17169;SDS011;8700;48.222;16.342;2023-05-07T19:30:57;14.57;;;13.37;;
17169;SDS011;8700;48.222;16.342;2023-05-07T19:34:18;16.05;;;14.75;;
17169;SDS011;8700;48.222;16.342;2023-05-07T19:37:41;16.90;;;15.40;;
17169;SDS011;8700;48.222;16.342;2023-05-07T19:41:02;17.65;;;16.20;;
17169;SDS011;8700;48.222;16.342;2023-05-07T19:44:24;15.77;;;14.33;;
17169;SDS011;8700;48.222;16.342;2023-05-07T19:47:46;14.98;;;13.55;;
17169;SDS011;8700;48.222;16.342;2023-05-07T19:51:08;15.40;;;14.03;;
17169;SDS011;8700;48.222;16.342;2023-05-07T19:54:31;16.93;;;15.33;;
17169;SDS011;8700;48.222;16.342;2023-05-07T19:57:53;16.30;;;14.83;;
17169;SDS011;8700;48.222;16.342;2023-05-07T20:01:14;17.30;;;15.63;;